Time,TemperatureF,DewpointF,PressureIn,WindDirection,WindDirectionDegrees,WindSpeedMPH,WindSpeedGustMPH,Humidity,HourlyPrecipIn,Conditions,Clouds,dailyrainin,SoftwareType,DateUTC
2013-06-04 00:07:00,-999.0,-99.9,29.93,North,-999,-999.0,-999.0,-999,-99.99,,,0.00,weatherlink.com 1.10,2013-06-04 04:07:00,
2013-06-04 00:22:00,54.1,50.0,29.94,North,0,0.0,-999.0,85,-99.99,,,0.00,weatherlink.com 1.10,2013-06-04 04:22:00,
2013-06-04 00:38:00,53.3,49.0,29.96,North,0,0.0,-999.0,86,-99.99,,,0.00,weatherlink.com 1.10,2013-06-04 04:38:00,
2013-06-04 00:53:00,52.9,49.0,29.96,North,0,0.0,-999.0,86,-99.99,,,0.00,weatherlink.com 1.10,2013-06-04 04:53:00,
2013-06-04 01:08:00,52.5,49.0,29.97,North,0,0.0,-999.0,86,-99.99,,,0.00,weatherlink.com 1.10,2013-06-04 05:08:00,
2013-06-04 01:23:00,51.6,47.0,29.95,North,0,0.0,-999.0,85,-99.99,,,0.00,weatherlink.com 1.10,2013-06-04 05:23:00,
2013-06-04 01:38:00,50.7,46.0,29.96,North,0,0.0,-999.0,85,-99.99,,,0.00,weatherlink.com 1.10,2013-06-04 05:38:00,
2013-06-04 01:53:00,50.1,46.0,29.97,North,0,0.0,-999.0,86,-99.99,,,0.00,weatherlink.com 1.10,2013-06-04 05:53:00,
2013-06-04 02:08:00,49.6,44.0,29.97,North,0,0.0,-999.0,80,-99.99,,,0.00,weatherlink.com 1.10,2013-06-04 06:08:00,
2013-06-04 02:23:00,49.8,42.0,29.97,North,0,0.0,-999.0,74,-99.99,,,0.00,weatherlink.com 1.10,2013-06-04 06:23:00,
2013-06-04 02:38:00,49.5,43.0,29.97,North,0,0.0,-999.0,78,-99.99,,,0.00,weatherlink.com 1.10,2013-06-04 06:38:00,
2013-06-04 02:53:00,48.3,43.0,29.98,North,0,0.0,-999.0,81,-99.99,,,0.00,weatherlink.com 1.10,2013-06-04 06:53:00,
2013-06-04 03:08:00,47.6,42.0,29.98,North,0,0.0,-999.0,80,-99.99,,,0.00,weatherlink.com 1.10,2013-06-04 07:08:00,
2013-06-04 03:23:00,47.4,42.0,29.98,North,0,0.0,-999.0,81,-99.99,,,0.00,weatherlink.com 1.10,2013-06-04 07:23:00,
2013-06-04 03:38:00,47.1,42.0,29.98,North,0,0.0,-999.0,83,-99.99,,,0.00,weatherlink.com 1.10,2013-06-04 07:38:00,
2013-06-04 03:53:00,46.8,43.0,29.98,North,0,0.0,-999.0,85,-99.99,,,0.00,weatherlink.com 1.10,2013-06-04 07:53:00,
2013-06-04 04:08:00,46.4,43.0,29.98,North,0,0.0,-999.0,86,-99.99,,,0.00,weatherlink.com 1.10,2013-06-04 08:08:00,
2013-06-04 04:23:00,46.0,42.0,29.99,North,0,0.0,-999.0,87,-99.99,,,0.00,weatherlink.com 1.10,2013-06-04 08:23:00,
2013-06-04 04:38:00,45.5,42.0,29.99,North,0,0.0,-999.0,87,-99.99,,,0.00,weatherlink.com 1.10,2013-06-04 08:38:00,
2013-06-04 04:53:00,45.4,40.0,30.00,North,0,0.0,-999.0,80,-99.99,,,0.00,weatherlink.com 1.10,2013-06-04 08:53:00,
2013-06-04 05:08:00,45.8,39.0,30.00,North,0,0.0,-999.0,78,-99.99,,,0.00,weatherlink.com 1.10,2013-06-04 09:08:00,
2013-06-04 05:23:00,46.8,39.0,30.01,North,0,0.0,-999.0,74,-99.99,,,0.01,weatherlink.com 1.10,2013-06-04 09:23:00,
2013-06-04 05:38:00,46.4,37.0,30.01,North,0,0.0,-999.0,70,-99.99,,,0.01,weatherlink.com 1.10,2013-06-04 09:38:00,
2013-06-04 05:53:00,46.5,38.0,30.01,North,0,0.0,-999.0,71,-99.99,,,0.01,weatherlink.com 1.10,2013-06-04 09:53:00,
2013-06-04 06:08:00,46.5,37.0,30.02,North,0,0.0,-999.0,70,-99.99,,,0.01,weatherlink.com 1.10,2013-06-04 10:08:00,
2013-06-04 06:23:00,46.5,38.0,30.02,North,0,0.0,-999.0,71,-99.99,,,0.01,weatherlink.com 1.10,2013-06-04 10:23:00,
2013-06-04 06:38:00,46.2,38.0,30.02,North,0,0.0,-999.0,73,-99.99,,,0.01,weatherlink.com 1.10,2013-06-04 10:38:00,
2013-06-04 06:53:00,45.8,39.0,30.03,North,0,0.0,-999.0,78,-99.99,,,0.01,weatherlink.com 1.10,2013-06-04 10:53:00,
2013-06-04 07:08:00,45.7,39.0,30.02,North,0,0.0,-999.0,77,-99.99,,,0.01,weatherlink.com 1.10,2013-06-04 11:08:00,
2013-06-04 07:23:00,45.8,39.0,30.04,North,0,0.0,-999.0,78,-99.99,,,0.01,weatherlink.com 1.10,2013-06-04 11:23:00,
2013-06-04 07:38:00,46.2,40.0,30.04,North,0,0.0,-999.0,80,-99.99,,,0.01,weatherlink.com 1.10,2013-06-04 11:38:00,
2013-06-04 07:53:00,47.0,42.0,30.04,North,0,0.0,-999.0,82,-99.99,,,0.01,weatherlink.com 1.10,2013-06-04 11:53:00,
2013-06-04 08:08:00,48.6,43.0,30.05,North,0,0.0,-999.0,81,-99.99,,,0.01,weatherlink.com 1.10,2013-06-04 12:08:00,
2013-06-04 08:23:00,50.1,44.0,30.05,North,0,0.0,-999.0,78,-99.99,,,0.01,weatherlink.com 1.10,2013-06-04 12:23:00,
2013-06-04 08:38:00,51.3,43.0,30.05,North,0,0.0,-999.0,74,-99.99,,,0.01,weatherlink.com 1.10,2013-06-04 12:38:00,
2013-06-04 08:53:00,52.9,43.0,30.05,North,0,0.0,-999.0,69,-99.99,,,0.01,weatherlink.com 1.10,2013-06-04 12:53:00,
2013-06-04 09:08:00,54.8,43.0,30.06,North,0,0.0,-999.0,64,-99.99,,,0.01,weatherlink.com 1.10,2013-06-04 13:08:00,
2013-06-04 09:23:00,55.6,41.0,30.07,North,0,0.0,-999.0,59,-99.99,,,0.01,weatherlink.com 1.10,2013-06-04 13:23:00,
2013-06-04 09:38:00,57.3,43.0,30.07,North,359,0.0,-999.0,59,-99.99,,,0.01,weatherlink.com 1.10,2013-06-04 13:38:00,
2013-06-04 09:54:00,58.6,45.0,30.07,North,359,0.0,-999.0,61,-99.99,,,0.01,weatherlink.com 1.10,2013-06-04 13:54:00,
2013-06-04 10:09:00,59.6,45.0,30.07,North,353,0.0,-999.0,58,-99.99,,,0.01,weatherlink.com 1.10,2013-06-04 14:09:00,
2013-06-04 10:24:00,60.7,44.0,30.06,North,354,0.0,-999.0,55,-99.99,,,0.01,weatherlink.com 1.10,2013-06-04 14:24:00,
2013-06-04 10:39:00,61.8,43.0,30.06,North,0,0.0,-999.0,51,-99.99,,,0.01,weatherlink.com 1.10,2013-06-04 14:39:00,
2013-06-04 10:54:00,62.3,44.0,30.06,North,0,0.0,-999.0,52,-99.99,,,0.01,weatherlink.com 1.10,2013-06-04 14:54:00,
2013-06-04 11:09:00,62.3,44.0,30.06,North,357,3.0,-999.0,51,-99.99,,,0.01,weatherlink.com 1.10,2013-06-04 15:09:00,
2013-06-04 11:24:00,62.4,43.0,30.04,North,356,5.0,-999.0,50,-99.99,,,0.01,weatherlink.com 1.10,2013-06-04 15:24:00,
2013-06-04 11:39:00,62.3,42.0,30.04,NNW,347,0.0,-999.0,47,-99.99,,,0.01,weatherlink.com 1.10,2013-06-04 15:39:00,
2013-06-04 11:54:00,63.1,41.0,30.03,North,0,5.0,-999.0,45,-99.99,,,0.01,weatherlink.com 1.10,2013-06-04 15:54:00,
2013-06-04 12:09:00,63.7,42.0,30.03,North,359,3.0,-999.0,46,-99.99,,,0.01,weatherlink.com 1.10,2013-06-04 16:09:00,
2013-06-04 12:24:00,64.5,43.0,30.04,North,352,6.0,-999.0,45,-99.99,,,0.01,weatherlink.com 1.10,2013-06-04 16:24:00,
2013-06-04 12:39:00,64.5,44.0,30.03,North,3,6.0,-999.0,47,-99.99,,,0.01,weatherlink.com 1.10,2013-06-04 16:39:00,
2013-06-04 12:54:00,65.8,43.0,30.02,North,359,0.0,-999.0,44,-99.99,,,0.01,weatherlink.com 1.10,2013-06-04 16:54:00,
2013-06-04 13:09:00,65.3,40.0,30.03,North,359,5.0,-999.0,39,-99.99,,,0.01,weatherlink.com 1.10,2013-06-04 17:09:00,
2013-06-04 13:24:00,66.4,39.0,30.03,North,356,0.0,-999.0,36,-99.99,,,0.01,weatherlink.com 1.10,2013-06-04 17:24:00,
2013-06-04 13:39:00,67.8,42.0,30.03,NW,312,1.0,-999.0,39,-99.99,,,0.01,weatherlink.com 1.10,2013-06-04 17:39:00,
2013-06-04 13:54:00,67.9,42.0,30.03,North,352,0.0,-999.0,39,-99.99,,,0.01,weatherlink.com 1.10,2013-06-04 17:54:00,
2013-06-04 14:09:00,67.6,37.0,30.03,NW,325,0.0,-999.0,32,-99.99,,,0.01,weatherlink.com 1.10,2013-06-04 18:09:00,
2013-06-04 14:24:00,68.1,43.0,30.03,North,359,6.0,-999.0,41,-99.99,,,0.01,weatherlink.com 1.10,2013-06-04 18:24:00,
2013-06-04 14:39:00,68.4,43.0,30.03,NNW,342,0.0,-999.0,40,-99.99,,,0.01,weatherlink.com 1.10,2013-06-04 18:39:00,
2013-06-04 14:54:00,68.6,44.0,30.03,NNW,336,0.0,-999.0,41,-99.99,,,0.01,weatherlink.com 1.10,2013-06-04 18:54:00,
2013-06-04 15:10:00,70.6,48.0,30.03,NNW,343,0.0,-999.0,44,-99.99,,,0.01,weatherlink.com 1.10,2013-06-04 19:10:00,
2013-06-04 15:25:00,71.1,43.0,30.02,North,349,0.0,-999.0,36,-99.99,,,0.01,weatherlink.com 1.10,2013-06-04 19:25:00,
2013-06-04 15:40:00,70.1,46.0,30.01,North,0,0.0,-999.0,42,-99.99,,,0.01,weatherlink.com 1.10,2013-06-04 19:40:00,
2013-06-04 15:55:00,70.1,43.0,30.01,North,0,3.0,-999.0,38,-99.99,,,0.01,weatherlink.com 1.10,2013-06-04 19:55:00,
2013-06-04 16:10:00,69.6,44.0,30.01,NNW,339,0.0,-999.0,40,-99.99,,,0.01,weatherlink.com 1.10,2013-06-04 20:10:00,
2013-06-04 16:25:00,70.4,43.0,30.01,North,0,0.0,-999.0,38,-99.99,,,0.01,weatherlink.com 1.10,2013-06-04 20:25:00,
2013-06-04 16:40:00,70.8,45.0,30.00,North,0,0.0,-999.0,40,-99.99,,,0.01,weatherlink.com 1.10,2013-06-04 20:40:00,
2013-06-04 16:55:00,70.8,42.0,30.00,North,353,0.0,-999.0,36,-99.99,,,0.01,weatherlink.com 1.10,2013-06-04 20:55:00,
2013-06-04 17:10:00,70.8,43.0,30.00,North,353,0.0,-999.0,37,-99.99,,,0.01,weatherlink.com 1.10,2013-06-04 21:10:00,
2013-06-04 17:25:00,71.3,42.0,29.99,North,350,3.0,-999.0,35,-99.99,,,0.01,weatherlink.com 1.10,2013-06-04 21:25:00,
2013-06-04 17:40:00,70.9,44.0,29.99,North,352,0.0,-999.0,38,-99.99,,,0.01,weatherlink.com 1.10,2013-06-04 21:40:00,
2013-06-04 17:55:00,70.4,44.0,30.00,NNW,347,0.0,-999.0,39,-99.99,,,0.01,weatherlink.com 1.10,2013-06-04 21:55:00,
2013-06-04 18:10:00,70.4,44.0,30.00,NNW,347,0.0,-999.0,39,-99.99,,,0.01,weatherlink.com 1.10,2013-06-04 22:10:00,
2013-06-04 18:25:00,69.9,43.0,30.00,NNW,347,0.0,-999.0,38,-99.99,,,0.01,weatherlink.com 1.10,2013-06-04 22:25:00,
2013-06-04 18:40:00,68.6,45.0,30.01,North,349,0.0,-999.0,43,-99.99,,,0.01,weatherlink.com 1.10,2013-06-04 22:40:00,
2013-06-04 18:55:00,68.3,45.0,30.01,NNW,344,0.0,-999.0,43,-99.99,,,0.01,weatherlink.com 1.10,2013-06-04 22:55:00,
2013-06-04 19:10:00,67.9,44.0,30.02,NNW,344,0.0,-999.0,42,-99.99,,,0.01,weatherlink.com 1.10,2013-06-04 23:10:00,
2013-06-04 19:25:00,67.4,46.0,30.01,NNW,344,0.0,-999.0,46,-99.99,,,0.01,weatherlink.com 1.10,2013-06-04 23:25:00,
2013-06-04 19:40:00,66.6,49.0,30.02,NNW,344,0.0,-999.0,53,-99.99,,,0.01,weatherlink.com 1.10,2013-06-04 23:40:00,
2013-06-04 19:55:00,65.2,48.0,30.02,NNW,344,0.0,-999.0,54,-99.99,,,0.01,weatherlink.com 1.10,2013-06-04 23:55:00,
2013-06-04 20:10:00,64.3,47.0,30.02,NNW,344,0.0,-999.0,54,-99.99,,,0.01,weatherlink.com 1.10,2013-06-05 00:10:00,
2013-06-04 20:25:00,63.2,48.0,30.02,NNW,344,0.0,-999.0,59,-99.99,,,0.01,weatherlink.com 1.10,2013-06-05 00:25:00,
2013-06-04 20:40:00,62.0,48.0,30.02,NNW,344,0.0,-999.0,61,-99.99,,,0.01,weatherlink.com 1.10,2013-06-05 00:40:00,
2013-06-04 20:55:00,61.3,46.0,30.02,NNW,344,0.0,-999.0,57,-99.99,,,0.01,weatherlink.com 1.10,2013-06-05 00:55:00,
2013-06-04 21:10:00,61.2,46.0,30.02,NNW,344,0.0,-999.0,57,-99.99,,,0.01,weatherlink.com 1.10,2013-06-05 01:10:00,
2013-06-04 21:25:00,60.7,45.0,30.02,NNW,344,0.0,-999.0,56,-99.99,,,0.01,weatherlink.com 1.10,2013-06-05 01:25:00,
2013-06-04 21:40:00,60.1,45.0,30.02,NNW,344,0.0,-999.0,57,-99.99,,,0.01,weatherlink.com 1.10,2013-06-05 01:40:00,
2013-06-04 21:55:00,59.9,44.0,30.03,NNW,344,0.0,-999.0,56,-99.99,,,0.01,weatherlink.com 1.10,2013-06-05 01:55:00,
2013-06-04 22:10:00,60.4,44.0,30.03,NNW,344,0.0,-999.0,55,-99.99,,,0.01,weatherlink.com 1.10,2013-06-05 02:10:00,
2013-06-04 22:25:00,60.9,44.0,30.02,NNW,346,1.0,-999.0,54,-99.99,,,0.01,weatherlink.com 1.10,2013-06-05 02:25:00,
2013-06-04 22:40:00,61.0,43.0,30.02,North,0,0.0,-999.0,52,-99.99,,,0.01,weatherlink.com 1.10,2013-06-05 02:40:00,
2013-06-04 22:55:00,60.7,44.0,30.02,North,1,2.0,-999.0,54,-99.99,,,0.01,weatherlink.com 1.10,2013-06-05 02:55:00,
2013-06-04 23:10:00,60.7,44.0,30.02,North,1,0.0,-999.0,54,-99.99,,,0.01,weatherlink.com 1.10,2013-06-05 03:10:00,
2013-06-04 23:25:00,59.6,44.0,30.02,NNW,339,0.0,-999.0,56,-99.99,,,0.01,weatherlink.com 1.10,2013-06-05 03:25:00,
2013-06-04 23:40:00,58.9,44.0,30.02,NNW,339,0.0,-999.0,58,-99.99,,,0.01,weatherlink.com 1.10,2013-06-05 03:40:00,
2013-06-04 23:55:00,59.6,44.0,30.02,NW,325,1.0,-999.0,56,-99.99,,,0.01,weatherlink.com 1.10,2013-06-05 03:55:00,